createdAt,value
2018-12-20T00:00:11.041Z,100.00
2018-12-20T00:02:39.614Z,100.00
2018-12-20T00:05:08.409Z,100.00
2018-12-20T00:07:37.076Z,100.00
2018-12-20T00:10:06.433Z,100.00
2018-12-20T00:12:36.652Z,100.00
2018-12-20T00:15:05.794Z,100.00
2018-12-20T00:17:40.654Z,100.00
2018-12-20T00:20:10.441Z,100.00
2018-12-20T00:22:39.278Z,100.00
2018-12-20T00:25:08.041Z,100.00
2018-12-20T00:27:36.692Z,100.00
2018-12-20T00:30:05.522Z,100.00
2018-12-20T00:32:34.158Z,100.00
2018-12-20T00:35:06.544Z,100.00
2018-12-20T00:37:36.276Z,100.00
2018-12-20T00:40:06.662Z,100.00
2018-12-20T00:42:35.859Z,100.00
2018-12-20T00:45:16.251Z,100.00
2018-12-20T00:47:55.020Z,100.00
2018-12-20T00:50:35.487Z,99.45
2018-12-20T00:53:04.106Z,99.65
2018-12-20T00:55:32.873Z,100.00
2018-12-20T00:58:05.581Z,99.83
2018-12-20T01:00:36.210Z,99.91
2018-12-20T01:03:05.182Z,99.81
2018-12-20T01:05:33.681Z,99.89
2018-12-20T01:08:02.347Z,99.74
2018-12-20T01:10:31.760Z,99.80
2018-12-20T01:13:01.729Z,99.20
2018-12-20T01:15:30.369Z,99.45
2018-12-20T01:18:05.384Z,98.95
2018-12-20T01:20:38.180Z,98.85
2018-12-20T01:23:12.973Z,98.18
2018-12-20T01:25:42.682Z,98.48
2018-12-20T01:28:13.471Z,99.17
2018-12-20T01:30:43.596Z,98.65
2018-12-20T01:33:13.746Z,98.71
2018-12-20T01:35:43.125Z,98.65
2018-12-20T01:38:11.894Z,98.55
2018-12-20T01:40:41.559Z,99.02
2018-12-20T01:43:10.506Z,98.57
2018-12-20T01:45:39.007Z,98.92
2018-12-20T01:48:09.168Z,98.57
2018-12-20T01:50:37.758Z,98.48
2018-12-20T01:53:06.296Z,98.20
2018-12-20T01:55:34.993Z,97.21
2018-12-20T01:58:04.217Z,97.30
2018-12-20T02:00:35.513Z,97.95
2018-12-20T02:03:04.892Z,97.85
2018-12-20T02:05:33.472Z,97.86
2018-12-20T02:08:02.031Z,98.27
2018-12-20T02:10:30.748Z,97.92
2018-12-20T02:12:59.455Z,97.33
2018-12-20T02:15:28.146Z,97.94
2018-12-20T02:17:56.916Z,97.61
2018-12-20T02:20:25.527Z,97.44
2018-12-20T02:22:54.129Z,97.83
2018-12-20T02:28:15.924Z,97.39
2018-12-20T02:30:44.536Z,97.41
2018-12-20T02:33:13.062Z,97.69
2018-12-20T02:35:41.648Z,97.46
2018-12-20T02:38:10.496Z,97.99
2018-12-20T02:40:39.115Z,98.28
2018-12-20T02:43:08.640Z,98.21
2018-12-20T02:45:37.251Z,98.62
2018-12-20T02:48:05.871Z,99.02
2018-12-20T02:50:34.621Z,98.74
2018-12-20T02:53:03.254Z,99.79
2018-12-20T02:55:31.824Z,99.28
2018-12-20T02:58:01.624Z,99.75
2018-12-20T03:00:30.983Z,100.00
2018-12-20T03:02:59.660Z,100.00
2018-12-20T03:05:30.424Z,100.00
2018-12-20T03:07:59.111Z,99.85
2018-12-20T03:10:28.146Z,100.00
2018-12-20T03:12:59.329Z,99.70
2018-12-20T03:15:29.264Z,100.00
2018-12-20T03:17:57.791Z,100.00
2018-12-20T03:20:26.513Z,100.00
2018-12-20T03:22:55.147Z,100.00
2018-12-20T03:25:23.902Z,100.00
2018-12-20T03:27:53.114Z,99.96
2018-12-20T03:30:23.100Z,99.48
2018-12-20T03:32:51.877Z,99.72
2018-12-20T03:35:20.736Z,99.68
2018-12-20T03:37:49.689Z,99.67
2018-12-20T03:40:18.939Z,100.00
2018-12-20T03:42:47.652Z,100.00
2018-12-20T03:45:16.536Z,99.48
2018-12-20T03:47:45.409Z,99.61
2018-12-20T03:50:14.138Z,99.13
2018-12-20T03:52:42.844Z,99.37
2018-12-20T03:55:11.751Z,99.29
2018-12-20T03:57:40.306Z,99.96
2018-12-20T04:00:09.306Z,99.83
2018-12-20T04:02:38.134Z,100.00
2018-12-20T04:05:06.775Z,100.00
2018-12-20T04:07:35.399Z,99.33
2018-12-20T04:10:04.211Z,99.00
2018-12-20T04:12:32.926Z,98.99
2018-12-20T04:15:01.500Z,98.91
2018-12-20T04:17:31.015Z,99.29
2018-12-20T04:19:59.472Z,99.86
2018-12-20T04:22:28.124Z,99.94
2018-12-20T04:24:56.744Z,99.87
2018-12-20T04:27:25.419Z,99.66
2018-12-20T04:29:53.966Z,99.26
2018-12-20T04:32:22.503Z,99.52
2018-12-20T04:34:51.034Z,99.28
2018-12-20T04:37:19.654Z,99.29
2018-12-20T04:39:50.074Z,99.47
2018-12-20T04:42:19.022Z,99.96
2018-12-20T04:44:47.780Z,100.00
2018-12-20T04:47:16.442Z,100.00
2018-12-20T04:49:45.142Z,99.80
2018-12-20T04:52:14.056Z,99.58
2018-12-20T04:54:42.732Z,99.55
2018-12-20T04:57:12.449Z,99.15
2018-12-20T04:59:41.021Z,99.77
2018-12-20T05:02:09.838Z,100.00
2018-12-20T05:04:38.480Z,100.00
2018-12-20T05:07:06.958Z,100.00
2018-12-20T05:09:35.541Z,100.00
2018-12-20T05:12:04.052Z,100.00
2018-12-20T05:14:32.657Z,100.00
2018-12-20T05:17:01.208Z,100.00
2018-12-20T05:19:30.047Z,100.00
2018-12-20T05:21:58.915Z,98.90
2018-12-20T05:24:27.651Z,99.02
2018-12-20T05:26:56.348Z,97.95
2018-12-20T05:29:24.992Z,97.59
2018-12-20T05:31:53.558Z,97.53
2018-12-20T05:34:22.027Z,96.13
2018-12-20T05:36:50.558Z,95.83
2018-12-20T05:39:19.174Z,96.17
2018-12-20T05:41:48.762Z,96.67
2018-12-20T05:44:17.789Z,96.63
2018-12-20T05:46:46.472Z,96.23
2018-12-20T05:49:15.635Z,96.21
2018-12-20T05:51:44.147Z,95.83
2018-12-20T05:54:12.729Z,95.70
2018-12-20T05:56:41.373Z,95.23
2018-12-20T05:59:09.997Z,95.65
2018-12-20T06:01:38.876Z,96.52
2018-12-20T06:04:07.458Z,96.07
2018-12-20T06:06:35.942Z,97.01
2018-12-20T06:09:07.378Z,97.15
2018-12-20T06:11:36.150Z,96.91
2018-12-20T06:14:04.641Z,96.96
2018-12-20T06:16:33.318Z,96.78
2018-12-20T06:22:01.205Z,97.65
2018-12-20T06:24:30.730Z,97.20
2018-12-20T06:26:59.839Z,97.21
2018-12-20T06:29:28.803Z,97.30
2018-12-20T06:31:57.276Z,97.46
2018-12-20T06:34:25.841Z,96.19
2018-12-20T06:36:54.486Z,97.16
2018-12-20T06:39:23.074Z,97.46
2018-12-20T06:41:51.614Z,97.43
2018-12-20T06:44:20.975Z,97.50
2018-12-20T06:46:51.098Z,97.62
2018-12-20T06:49:19.609Z,97.98
2018-12-20T06:51:48.316Z,98.33
2018-12-20T06:54:16.815Z,97.97
2018-12-20T06:56:45.293Z,97.85
2018-12-20T06:59:13.793Z,97.64
2018-12-20T07:01:42.299Z,97.46
2018-12-20T07:04:10.865Z,97.38
2018-12-20T07:06:39.371Z,97.60
2018-12-20T07:09:09.643Z,97.43
2018-12-20T07:11:38.161Z,97.75
2018-12-20T07:14:07.346Z,97.69
2018-12-20T07:16:35.872Z,97.83
2018-12-20T07:19:04.394Z,97.54
2018-12-20T07:21:32.960Z,97.17
2018-12-20T07:24:01.562Z,97.00
2018-12-20T07:26:31.220Z,97.15
2018-12-20T07:28:59.761Z,97.22
2018-12-20T07:31:28.358Z,98.31
2018-12-20T07:33:56.990Z,97.91
2018-12-20T07:36:25.560Z,97.60
2018-12-20T07:38:54.312Z,98.26
2018-12-20T07:41:22.778Z,97.93
2018-12-20T07:43:51.405Z,97.29
2018-12-20T07:46:20.081Z,97.72
2018-12-20T07:48:48.957Z,97.57
2018-12-20T07:51:17.594Z,97.59
2018-12-20T07:53:46.182Z,97.62
2018-12-20T07:56:16.609Z,97.72
2018-12-20T07:58:57.919Z,97.71
2018-12-20T08:01:26.574Z,97.94
2018-12-20T08:03:55.071Z,97.10
2018-12-20T08:06:23.878Z,97.50
2018-12-20T08:08:52.438Z,96.53
2018-12-20T08:11:20.980Z,95.94
2018-12-20T08:13:50.411Z,95.62
2018-12-20T08:16:19.204Z,96.23
2018-12-20T08:18:47.707Z,97.56
2018-12-20T08:21:16.902Z,97.68
2018-12-20T08:23:46.140Z,96.96
2018-12-20T08:26:14.603Z,97.54
2018-12-20T08:28:43.269Z,96.21
2018-12-20T08:31:11.723Z,96.61
2018-12-20T08:33:40.269Z,95.88
2018-12-20T08:36:09.306Z,95.96
2018-12-20T08:38:37.821Z,95.68
2018-12-20T08:41:06.262Z,95.24
2018-12-20T08:43:35.166Z,95.77
2018-12-20T08:46:03.619Z,95.19
2018-12-20T08:48:32.113Z,96.65
2018-12-20T08:51:00.694Z,95.87
2018-12-20T08:53:29.254Z,96.01
2018-12-20T08:55:57.740Z,96.33
2018-12-20T08:58:26.228Z,95.56
2018-12-20T09:00:54.668Z,95.52
2018-12-20T09:03:23.306Z,95.49
2018-12-20T09:05:52.102Z,96.49
2018-12-20T09:08:20.615Z,95.75
2018-12-20T09:10:51.046Z,96.11
2018-12-20T09:13:19.609Z,96.17
2018-12-20T09:15:48.613Z,96.90
2018-12-20T09:18:17.191Z,96.07
2018-12-20T09:20:45.778Z,95.89
2018-12-20T09:23:15.033Z,96.15
2018-12-20T09:25:43.478Z,96.04
2018-12-20T09:28:12.045Z,95.12
2018-12-20T09:30:40.600Z,95.30
2018-12-20T09:33:10.035Z,95.70
2018-12-20T09:35:38.599Z,97.21
2018-12-20T09:38:08.375Z,97.54
2018-12-20T09:40:36.968Z,97.37
2018-12-20T09:43:05.697Z,96.26
2018-12-20T09:45:34.252Z,96.97
2018-12-20T09:48:05.710Z,97.25
2018-12-20T09:50:35.346Z,97.58
2018-12-20T09:53:03.789Z,96.30
2018-12-20T09:55:32.312Z,96.03
2018-12-20T09:58:00.861Z,95.58
2018-12-20T10:00:30.291Z,96.36
2018-12-20T10:02:58.858Z,96.25
2018-12-20T10:05:27.619Z,95.13
2018-12-20T10:07:56.168Z,94.66
2018-12-20T10:10:24.655Z,94.37
2018-12-20T10:12:53.267Z,94.69
2018-12-20T10:15:21.783Z,96.42
2018-12-20T10:17:51.122Z,96.52
2018-12-20T10:20:21.693Z,95.37
2018-12-20T10:22:50.452Z,96.37
2018-12-20T10:25:18.951Z,95.71
2018-12-20T10:27:49.438Z,95.58
2018-12-20T10:30:18.802Z,96.88
2018-12-20T10:32:47.360Z,95.98
2018-12-20T10:35:16.008Z,94.82
2018-12-20T10:37:44.527Z,95.33
2018-12-20T10:40:13.122Z,95.20
2018-12-20T10:42:45.687Z,94.65
2018-12-20T10:45:14.435Z,94.09
2018-12-20T10:47:43.017Z,93.86
2018-12-20T10:50:11.539Z,92.91
2018-12-20T10:52:40.003Z,92.61
2018-12-20T10:55:09.318Z,93.44
2018-12-20T10:57:38.029Z,94.02
2018-12-20T11:00:10.251Z,93.69
2018-12-20T11:02:43.878Z,93.63
2018-12-20T11:05:17.826Z,92.70
2018-12-20T11:07:51.831Z,94.64
2018-12-20T11:10:25.752Z,94.54
2018-12-20T11:12:55.156Z,94.61
2018-12-20T11:15:23.785Z,94.52
2018-12-20T11:17:52.265Z,94.03
2018-12-20T11:20:20.874Z,95.40
2018-12-20T11:22:50.344Z,94.42
2018-12-20T11:25:19.702Z,94.37
2018-12-20T11:27:48.791Z,93.68
2018-12-20T11:30:17.328Z,93.70
2018-12-20T11:32:46.929Z,92.67
2018-12-20T11:35:15.361Z,93.19
2018-12-20T11:37:43.818Z,93.91
2018-12-20T11:40:12.352Z,93.91
2018-12-20T11:42:45.041Z,94.54
2018-12-20T11:45:15.643Z,94.32
2018-12-20T11:47:46.053Z,95.35
2018-12-20T11:50:14.963Z,94.03
2018-12-20T11:52:44.225Z,94.82
2018-12-20T11:55:12.770Z,95.78
2018-12-20T11:57:45.082Z,94.99
2018-12-20T12:00:13.657Z,95.09
2018-12-20T12:02:42.233Z,94.50
2018-12-20T12:05:10.981Z,95.22
2018-12-20T12:07:39.579Z,95.86
2018-12-20T12:10:08.543Z,96.68
2018-12-20T12:12:38.052Z,96.14
2018-12-20T12:15:08.994Z,95.68
2018-12-20T12:17:37.470Z,95.05
2018-12-20T12:20:07.189Z,95.78
2018-12-20T12:22:35.667Z,96.68
2018-12-20T12:25:04.752Z,96.90
2018-12-20T12:27:33.251Z,96.84
2018-12-20T12:30:01.781Z,97.39
2018-12-20T12:32:31.065Z,96.67
2018-12-20T12:34:59.719Z,96.12
2018-12-20T12:37:28.176Z,96.96
2018-12-20T12:39:56.779Z,97.82
2018-12-20T12:42:25.381Z,96.10
2018-12-20T12:44:53.911Z,96.59
2018-12-20T12:47:26.611Z,97.38
2018-12-20T12:49:55.140Z,97.12
2018-12-20T12:52:24.299Z,98.11
2018-12-20T12:54:52.750Z,97.97
2018-12-20T12:57:22.450Z,97.75
2018-12-20T12:59:51.970Z,96.82
2018-12-20T13:02:20.660Z,95.87
2018-12-20T13:04:50.348Z,96.37
2018-12-20T13:07:18.868Z,97.09
2018-12-20T13:09:47.386Z,97.79
2018-12-20T13:12:15.957Z,96.10
2018-12-20T13:14:45.031Z,95.62
2018-12-20T13:17:13.615Z,94.81
2018-12-20T13:19:42.107Z,95.24
2018-12-20T13:22:11.205Z,95.94
2018-12-20T13:24:40.325Z,95.25
2018-12-20T13:27:09.028Z,95.65
2018-12-20T13:29:37.611Z,96.66
2018-12-20T13:32:06.363Z,96.91
2018-12-20T13:34:34.913Z,96.00
2018-12-20T13:37:03.680Z,95.25
2018-12-20T13:39:32.620Z,94.82
2018-12-20T13:42:01.225Z,94.34
2018-12-20T13:44:30.242Z,94.26
2018-12-20T13:46:58.941Z,94.74
2018-12-20T13:49:27.468Z,95.82
2018-12-20T13:51:56.000Z,96.19
2018-12-20T13:54:24.431Z,96.00
2018-12-20T13:56:52.993Z,96.85
2018-12-20T13:59:21.553Z,96.46
2018-12-20T14:01:50.147Z,96.23
2018-12-20T14:04:18.646Z,97.20
2018-12-20T14:06:52.963Z,97.05
2018-12-20T14:09:21.446Z,97.63
2018-12-20T14:11:50.805Z,97.74
2018-12-20T14:14:20.246Z,96.13
2018-12-20T14:16:49.766Z,96.04
2018-12-20T14:19:18.312Z,96.03
2018-12-20T14:21:46.839Z,96.14
2018-12-20T14:24:15.694Z,95.46
2018-12-20T14:26:44.808Z,96.13
2018-12-20T14:29:13.310Z,95.82
2018-12-20T14:31:41.795Z,95.52
2018-12-20T14:34:11.102Z,94.98
2018-12-20T14:36:39.623Z,95.75
2018-12-20T14:39:08.267Z,95.62
2018-12-20T14:41:36.737Z,95.90
2018-12-20T14:44:06.185Z,95.57
2018-12-20T14:46:34.858Z,95.88
2018-12-20T14:49:03.344Z,96.25
2018-12-20T14:51:31.830Z,96.13
2018-12-20T14:54:00.372Z,95.23
2018-12-20T14:56:29.343Z,96.26
2018-12-20T14:58:57.927Z,96.97
2018-12-20T15:01:26.338Z,96.95
2018-12-20T15:03:54.922Z,96.88
2018-12-20T15:06:23.433Z,96.94
2018-12-20T15:08:51.984Z,97.52
2018-12-20T15:11:20.522Z,97.00
2018-12-20T15:13:50.738Z,97.76
2018-12-20T15:16:19.212Z,98.68
2018-12-20T15:18:48.127Z,99.12
2018-12-20T15:21:16.827Z,99.20
2018-12-20T15:23:45.451Z,99.00
2018-12-20T15:26:14.019Z,98.77
2018-12-20T15:28:42.505Z,98.48
2018-12-20T15:31:11.015Z,97.77
2018-12-20T15:33:39.622Z,97.18
2018-12-20T15:36:09.469Z,97.24
2018-12-20T15:38:38.114Z,96.97
2018-12-20T15:41:06.670Z,97.27
2018-12-20T15:43:35.212Z,98.11
2018-12-20T15:46:03.788Z,97.30
2018-12-20T15:48:32.395Z,97.59
2018-12-20T15:51:00.951Z,97.26
2018-12-20T15:53:29.567Z,97.97
2018-12-20T15:55:58.232Z,97.85
2018-12-20T15:58:26.813Z,96.91
2018-12-20T16:00:55.431Z,97.79
2018-12-20T16:03:24.035Z,97.83
2018-12-20T16:05:52.515Z,97.81
2018-12-20T16:08:21.182Z,97.97
2018-12-20T16:10:49.830Z,98.27
2018-12-20T16:13:18.401Z,98.27
2018-12-20T16:15:46.939Z,98.15
2018-12-20T16:18:15.442Z,98.48
2018-12-20T16:20:43.980Z,99.19
2018-12-20T16:23:12.483Z,98.64
2018-12-20T16:25:41.002Z,98.40
2018-12-20T16:28:10.674Z,99.14
2018-12-20T16:30:39.187Z,98.57
2018-12-20T16:33:07.709Z,98.72
2018-12-20T16:35:36.239Z,98.33
2018-12-20T16:38:05.499Z,97.27
2018-12-20T16:40:33.991Z,98.72
2018-12-20T16:43:02.542Z,94.11
2018-12-20T16:45:31.703Z,95.05
2018-12-20T16:48:00.204Z,96.98
2018-12-20T16:50:29.933Z,97.48
2018-12-20T16:52:58.491Z,98.16
2018-12-20T16:55:27.057Z,98.21
2018-12-20T16:57:56.380Z,98.92
2018-12-20T17:00:24.949Z,97.58
2018-12-20T17:02:53.493Z,98.05
2018-12-20T17:05:22.082Z,97.76
2018-12-20T17:07:52.446Z,97.73
2018-12-20T17:10:23.118Z,97.75
2018-12-20T17:12:52.805Z,97.76
2018-12-20T17:15:21.349Z,97.13
2018-12-20T17:17:49.901Z,97.43
2018-12-20T17:20:18.424Z,97.83
2018-12-20T17:22:46.888Z,98.47
2018-12-20T17:25:15.381Z,98.33
2018-12-20T17:27:48.429Z,98.49
2018-12-20T17:30:16.966Z,98.53
2018-12-20T17:32:45.465Z,97.88
2018-12-20T17:38:07.405Z,98.41
2018-12-20T17:40:35.936Z,99.01
2018-12-20T17:43:04.550Z,99.14
2018-12-20T17:45:34.474Z,99.48
2018-12-20T17:48:02.908Z,98.95
2018-12-20T17:50:36.991Z,98.79
2018-12-20T17:53:06.464Z,97.55
2018-12-20T17:55:44.481Z,97.44
2018-12-20T17:58:06.636Z,97.90
2018-12-20T18:00:35.241Z,98.94
2018-12-20T18:03:04.388Z,99.78
2018-12-20T18:05:34.392Z,99.03
2018-12-20T18:08:03.159Z,99.34
2018-12-20T18:10:32.075Z,99.19
2018-12-20T18:13:01.228Z,99.13
2018-12-20T18:15:29.839Z,98.74
2018-12-20T18:17:58.432Z,98.28
2018-12-20T18:20:27.270Z,99.04
2018-12-20T18:22:55.938Z,99.14
2018-12-20T18:25:24.423Z,98.47
2018-12-20T18:27:54.212Z,98.21
2018-12-20T18:30:22.846Z,98.18
2018-12-20T18:32:51.934Z,98.31
2018-12-20T18:35:20.410Z,98.91
2018-12-20T18:37:50.493Z,98.44
2018-12-20T18:40:19.007Z,98.42
2018-12-20T18:42:48.083Z,98.23
2018-12-20T18:45:17.186Z,98.36
2018-12-20T18:47:45.772Z,98.47
2018-12-20T18:50:14.427Z,98.32
2018-12-20T18:52:43.066Z,98.55
2018-12-20T18:55:12.848Z,98.30
2018-12-20T18:57:41.346Z,98.50
2018-12-20T19:00:10.795Z,98.50
2018-12-20T19:02:39.833Z,98.40
2018-12-20T19:05:09.479Z,98.29
2018-12-20T19:07:37.969Z,98.12
2018-12-20T19:10:07.513Z,98.32
2018-12-20T19:12:36.273Z,98.21
2018-12-20T19:15:05.357Z,98.11
2018-12-20T19:17:33.970Z,98.54
2018-12-20T19:20:02.555Z,98.37
2018-12-20T19:22:31.389Z,98.29
2018-12-20T19:25:00.222Z,98.39
2018-12-20T19:27:28.678Z,98.65
2018-12-20T19:29:57.172Z,97.72
2018-12-20T19:32:25.703Z,97.77
2018-12-20T19:34:54.174Z,97.27
2018-12-20T19:37:22.721Z,97.24
2018-12-20T19:40:06.558Z,97.43
2018-12-20T19:42:35.171Z,97.25
2018-12-20T19:45:04.921Z,97.52
2018-12-20T19:47:35.667Z,97.13
2018-12-20T19:50:05.374Z,97.00
2018-12-20T19:52:33.957Z,97.52
2018-12-20T19:55:02.695Z,97.87
2018-12-20T19:57:33.493Z,98.36
2018-12-20T20:00:01.985Z,98.15
2018-12-20T20:02:30.598Z,98.49
2018-12-20T20:04:59.154Z,98.29
2018-12-20T20:07:27.668Z,98.35
2018-12-20T20:09:56.160Z,98.15
2018-12-20T20:12:24.695Z,98.25
2018-12-20T20:14:53.829Z,99.15
2018-12-20T20:17:29.701Z,99.30
2018-12-20T20:19:59.912Z,99.05
2018-12-20T20:22:29.293Z,98.03
2018-12-20T20:24:58.653Z,98.56
2018-12-20T20:27:27.083Z,98.82
2018-12-20T20:29:56.198Z,98.78
2018-12-20T20:32:24.900Z,98.99
2018-12-20T20:34:53.565Z,99.23
2018-12-20T20:37:22.399Z,99.08
2018-12-20T20:39:50.858Z,98.86
2018-12-20T20:42:19.360Z,98.83
2018-12-20T20:44:48.807Z,98.83
2018-12-20T20:47:17.739Z,98.74
2018-12-20T20:49:46.226Z,98.72
2018-12-20T20:52:15.151Z,99.09
2018-12-20T20:54:43.668Z,99.14
2018-12-20T20:57:12.315Z,98.62
2018-12-20T20:59:40.919Z,98.80
2018-12-20T21:02:14.833Z,98.64
2018-12-20T21:04:43.425Z,98.67
2018-12-20T21:07:12.023Z,99.07
2018-12-20T21:09:40.635Z,98.39
2018-12-20T21:12:10.391Z,98.23
2018-12-20T21:14:39.760Z,98.14
2018-12-20T21:17:09.034Z,98.06
2018-12-20T21:19:37.572Z,98.13
2018-12-20T21:22:06.205Z,98.72
2018-12-20T21:24:36.511Z,97.85
2018-12-20T21:27:05.030Z,98.33
2018-12-20T21:29:34.764Z,97.99
2018-12-20T21:32:03.268Z,98.14
2018-12-20T21:34:32.584Z,98.37
2018-12-20T21:37:02.003Z,98.41
2018-12-20T21:39:31.533Z,97.82
2018-12-20T21:42:00.067Z,97.19
2018-12-20T21:44:28.601Z,97.50
2018-12-20T21:46:57.516Z,97.93
2018-12-20T21:49:26.025Z,98.28
2018-12-20T21:51:55.977Z,97.75
2018-12-20T21:54:24.617Z,97.56
2018-12-20T21:56:53.467Z,97.54
2018-12-20T21:59:22.315Z,96.90
2018-12-20T22:01:50.916Z,97.06
2018-12-20T22:04:19.472Z,96.58
2018-12-20T22:06:47.930Z,97.23
2018-12-20T22:09:16.437Z,97.32
2018-12-20T22:11:46.312Z,96.76
2018-12-20T22:14:16.620Z,96.69
2018-12-20T22:16:46.007Z,95.92
2018-12-20T22:19:15.873Z,96.16
2018-12-20T22:21:44.482Z,96.40
2018-12-20T22:24:14.560Z,96.00
2018-12-20T22:26:45.951Z,96.32
2018-12-20T22:29:15.528Z,96.80
2018-12-20T22:31:45.838Z,95.87
2018-12-20T22:34:17.965Z,96.46
2018-12-20T22:36:47.704Z,96.54
2018-12-20T22:39:17.025Z,96.72
2018-12-20T22:41:48.772Z,96.71
2018-12-20T22:44:17.564Z,96.36
2018-12-20T22:46:46.372Z,96.44
2018-12-20T22:49:15.972Z,95.96
2018-12-20T22:51:48.809Z,96.08
2018-12-20T22:54:17.638Z,95.92
2018-12-20T22:56:47.007Z,95.23
2018-12-20T22:59:15.585Z,96.17
2018-12-20T23:01:44.218Z,95.38
2018-12-20T23:04:12.745Z,96.06
2018-12-20T23:06:41.212Z,95.87
2018-12-20T23:09:10.712Z,95.47
2018-12-20T23:11:39.804Z,95.19
2018-12-20T23:14:08.370Z,94.58
2018-12-20T23:16:36.910Z,95.72
2018-12-20T23:19:06.211Z,95.40
2018-12-20T23:21:35.390Z,95.94
2018-12-20T23:24:03.896Z,96.36
2018-12-20T23:26:33.106Z,95.78
2018-12-20T23:29:01.645Z,95.62
2018-12-20T23:31:30.226Z,95.14
2018-12-20T23:33:58.738Z,95.58
2018-12-20T23:36:27.234Z,95.92
2018-12-20T23:38:55.780Z,95.30
2018-12-20T23:41:24.225Z,94.47
2018-12-20T23:43:53.062Z,94.41
2018-12-20T23:46:21.651Z,94.85
2018-12-20T23:48:50.159Z,94.59
2018-12-20T23:51:18.694Z,95.27
2018-12-20T23:53:47.193Z,94.33
2018-12-20T23:56:16.070Z,94.94
2018-12-20T23:58:45.104Z,94.66
